Time;durP1;ratioP1;P1;durP2;ratioP2;P2;SDS_P1;SDS_P2;PMS_P1;PMS_P2;Temp;Humidity;BMP_temperature;BMP_pressure;BME280_temperature;BME280_humidity;BME280_pressure;Samples;Min_cycle;Max_cycle;Signal;HPM_P1;HPM_P2
2021/05/26 00:00:58;;;;;;;2.00;1.10;;;20.80;49.30;;;;;;5052938;28;20053;-56
2021/05/26 00:03:25;;;;;;;2.47;1.27;;;20.80;49.20;;;;;;5052774;28;20045;-53
2021/05/26 00:05:52;;;;;;;2.85;1.20;;;20.80;49.30;;;;;;5052301;28;20094;-57
2021/05/26 00:08:33;;;;;;;2.22;1.15;;;20.80;49.20;;;;;;5052616;28;20041;-56
2021/05/26 00:11:17;;;;;;;2.22;1.27;;;20.80;49.20;;;;;;5052000;28;20040;-56
2021/05/26 00:13:45;;;;;;;;;;;20.80;49.20;;;;;;5054208;28;20045;-57
2021/05/26 00:16:13;;;;;;;2.33;1.30;;;20.80;49.20;;;;;;5068147;28;19920;-55
2021/05/26 00:18:40;;;;;;;4.35;1.80;;;20.70;49.10;;;;;;5052582;28;20045;-54
2021/05/26 00:21:09;;;;;;;2.30;1.42;;;20.80;49.20;;;;;;5052734;28;20048;-56
2021/05/26 00:23:37;;;;;;;2.95;1.20;;;20.80;49.20;;;;;;5051450;28;20045;-56
2021/05/26 00:26:05;;;;;;;2.05;1.20;;;20.70;49.10;;;;;;5047527;28;20042;-57
2021/05/26 00:28:32;;;;;;;4.15;1.10;;;20.70;49.10;;;;;;5040260;28;20048;-55
2021/05/26 00:31:00;;;;;;;2.45;1.40;;;20.70;49.10;;;;;;5052628;28;20051;-56
2021/05/26 00:33:28;;;;;;;1.80;1.20;;;20.70;49.10;;;;;;5051452;28;20044;-57
2021/05/26 00:35:55;;;;;;;2.38;1.20;;;20.80;49.10;;;;;;5049579;28;20519;-55
2021/05/26 00:38:22;;;;;;;4.07;1.40;;;20.70;49.10;;;;;;5036161;28;20053;-54
2021/05/26 00:40:50;;;;;;;4.70;1.40;;;20.70;49.10;;;;;;5035813;28;20045;-57
2021/05/26 00:43:17;;;;;;;2.63;1.38;;;20.70;49.10;;;;;;5036895;28;20095;-55
2021/05/26 00:45:45;;;;;;;2.45;1.20;;;20.70;49.10;;;;;;5036285;28;20046;-56
2021/05/26 00:48:12;;;;;;;3.00;1.20;;;20.70;49.10;;;;;;5052145;28;20041;-54
2021/05/26 00:50:40;;;;;;;2.15;0.98;;;20.70;49.10;;;;;;5052564;28;20055;-56
2021/05/26 00:53:11;;;;;;;2.72;0.95;;;20.70;49.10;;;;;;5035695;28;20076;-57
2021/05/26 00:55:39;;;;;;;3.30;1.45;;;20.70;49.10;;;;;;5068043;28;20049;-56
2021/05/26 00:58:07;;;;;;;2.28;1.15;;;20.70;49.10;;;;;;5050869;28;20053;-54
2021/05/26 01:00:36;;;;;;;2.78;1.42;;;20.70;49.00;;;;;;5036368;28;20045;-57
2021/05/26 01:03:04;;;;;;;3.35;1.60;;;20.70;49.00;;;;;;5051793;28;20408;-57
2021/05/26 01:05:32;;;;;;;2.65;1.10;;;20.70;49.10;;;;;;5051715;28;20445;-58
2021/05/26 01:08:00;;;;;;;1.88;1.27;;;20.70;49.10;;;;;;5050784;28;20037;-57
2021/05/26 01:10:30;;;;;;;3.67;1.50;;;20.70;49.00;;;;;;5051913;28;20135;-55
2021/05/26 01:12:58;;;;;;;2.22;1.30;;;20.70;49.10;;;;;;5065475;28;20412;-55
2021/05/26 01:15:26;;;;;;;2.15;1.25;;;20.70;49.00;;;;;;5051807;28;20055;-55
2021/05/26 01:17:53;;;;;;;3.33;1.40;;;20.70;49.00;;;;;;5051924;28;20057;-56
2021/05/26 01:20:29;;;;;;;1.90;1.15;;;20.70;49.10;;;;;;5051854;28;20493;-54
2021/05/26 01:22:59;;;;;;;2.78;1.25;;;20.70;49.00;;;;;;5042519;28;20118;-55
2021/05/26 01:25:27;;;;;;;3.00;1.30;;;20.70;49.10;;;;;;5045402;28;20052;-57
2021/05/26 01:27:56;;;;;;;2.85;1.23;;;20.70;49.10;;;;;;5052867;28;20043;-56
2021/05/26 01:30:25;;;;;;;2.85;1.30;;;20.70;49.00;;;;;;5051568;28;20049;-55
2021/05/26 01:32:52;;;;;;;2.42;1.40;;;20.70;49.00;;;;;;5045164;28;20045;-55
2021/05/26 01:35:20;;;;;;;2.72;1.20;;;20.70;49.00;;;;;;5037620;28;20041;-54
2021/05/26 01:37:48;;;;;;;2.55;1.30;;;20.70;49.00;;;;;;5036608;28;20041;-55
2021/05/26 01:40:18;;;;;;;2.72;1.35;;;20.70;49.00;;;;;;5035532;28;20092;-54
2021/05/26 01:42:46;;;;;;;2.78;1.10;;;20.70;49.00;;;;;;5040193;28;20041;-52
2021/05/26 01:45:17;;;;;;;5.88;1.30;;;20.70;48.90;;;;;;5051812;28;20068;-56
2021/05/26 01:47:48;;;;;;;3.33;1.30;;;20.70;49.00;;;;;;5051963;28;20056;-56
2021/05/26 01:50:22;;;;;;;4.13;1.60;;;20.70;48.90;;;;;;5050505;28;20500;-54
2021/05/26 01:53:01;;;;;;;2.20;1.35;;;20.70;49.00;;;;;;5054756;28;20055;-55
2021/05/26 01:55:28;;;;;;;2.78;1.50;;;20.70;48.90;;;;;;5054012;28;20123;-56
2021/05/26 01:57:56;;;;;;;2.72;1.15;;;20.70;48.90;;;;;;5054414;28;20053;-54
2021/05/26 02:00:23;;;;;;;2.13;1.10;;;20.60;48.90;;;;;;5055341;28;20507;-54
2021/05/26 02:02:51;;;;;;;3.20;1.33;;;20.60;48.90;;;;;;5055232;28;20048;-55
2021/05/26 02:05:19;;;;;;;1.75;1.20;;;20.60;48.90;;;;;;5038886;28;20049;-56
2021/05/26 02:07:47;;;;;;;4.15;1.58;;;20.60;48.90;;;;;;5054386;28;20056;-56
2021/05/26 02:10:16;;;;;;;2.33;1.30;;;20.60;48.80;;;;;;5037899;28;20413;-54
2021/05/26 02:12:45;;;;;;;1.80;1.20;;;20.60;48.80;;;;;;5037868;28;20061;-51
2021/05/26 02:15:14;;;;;;;4.38;1.10;;;20.70;48.90;;;;;;5053984;28;20064;-53
2021/05/26 02:17:42;;;;;;;2.50;1.10;;;20.60;48.80;;;;;;5055054;28;20060;-54
2021/05/26 02:20:11;;;;;;;2.25;1.30;;;20.70;48.90;;;;;;5055242;28;20401;-54
2021/05/26 02:22:39;;;;;;;1.70;1.00;;;20.70;48.90;;;;;;5054811;28;20044;-53
2021/05/26 02:25:07;;;;;;;3.88;1.48;;;20.60;48.80;;;;;;5040606;28;20113;-57
2021/05/26 02:27:35;;;;;;;1.80;1.10;;;20.60;48.80;;;;;;5051658;28;20041;-55
2021/05/26 02:30:03;;;;;;;2.95;1.20;;;20.60;48.80;;;;;;5054467;28;20056;-56
2021/05/26 02:32:30;;;;;;;2.33;1.30;;;20.60;48.90;;;;;;5054847;28;20080;-56
2021/05/26 02:35:05;;;;;;;2.65;1.00;;;20.60;48.80;;;;;;5054738;28;20084;-56
2021/05/26 02:37:32;;;;;;;2.97;1.20;;;20.60;48.80;;;;;;5045108;28;20051;-54
2021/05/26 02:40:00;;;;;;;2.10;1.40;;;20.60;48.80;;;;;;5048230;28;20041;-55
2021/05/26 02:42:27;;;;;;;1.73;1.08;;;20.60;48.80;;;;;;5046542;28;20050;-54
2021/05/26 02:44:54;;;;;;;1.90;1.10;;;20.60;48.80;;;;;;5045918;28;20052;-56
2021/05/26 02:47:21;;;;;;;3.22;1.35;;;20.60;48.80;;;;;;5054310;28;20041;-57
2021/05/26 02:49:48;;;;;;;2.78;1.20;;;20.60;48.80;;;;;;5055421;28;20440;-56
2021/05/26 02:52:15;;;;;;;3.22;1.13;;;20.60;48.80;;;;;;5053948;28;20527;-54
2021/05/26 02:54:43;;;;;;;3.55;1.33;;;20.60;48.70;;;;;;5054145;28;20049;-57
2021/05/26 02:57:10;;;;;;;1.58;1.10;;;20.60;48.80;;;;;;5070635;28;20041;-56
2021/05/26 02:59:37;;;;;;;1.98;1.10;;;20.60;48.70;;;;;;5052651;28;20055;-53
2021/05/26 03:02:04;;;;;;;1.80;1.05;;;20.60;48.80;;;;;;5038449;28;20106;-54
2021/05/26 03:04:32;;;;;;;1.45;1.02;;;20.60;48.80;;;;;;5054064;28;20041;-53
2021/05/26 03:06:59;;;;;;;1.63;1.17;;;20.60;48.70;;;;;;5044338;28;20056;-56
2021/05/26 03:09:26;;;;;;;2.88;1.00;;;20.60;48.70;;;;;;5055135;28;20106;-56
2021/05/26 03:11:53;;;;;;;1.67;1.05;;;20.60;48.70;;;;;;5053345;28;20412;-54
2021/05/26 03:14:21;;;;;;;2.35;1.35;;;20.60;48.70;;;;;;5035593;28;20045;-56
2021/05/26 03:16:48;;;;;;;3.35;1.30;;;20.60;48.70;;;;;;5053976;28;20045;-54
2021/05/26 03:19:15;;;;;;;2.22;1.20;;;20.60;48.70;;;;;;5053779;28;20103;-55
2021/05/26 03:21:42;;;;;;;1.38;0.82;;;20.60;48.70;;;;;;5053615;28;20041;-53
2021/05/26 03:24:11;;;;;;;2.80;0.90;;;20.60;48.70;;;;;;5039793;28;20045;-54
2021/05/26 03:26:38;;;;;;;2.08;1.10;;;20.60;48.70;;;;;;5051121;28;20071;-54
2021/05/26 03:29:07;;;;;;;2.25;1.17;;;20.60;48.70;;;;;;5054907;28;20131;-52
2021/05/26 03:31:34;;;;;;;2.05;1.02;;;20.60;48.70;;;;;;5041590;28;20239;-55
2021/05/26 03:34:03;;;;;;;2.50;1.30;;;20.60;48.60;;;;;;5049474;28;20075;-56
2021/05/26 03:36:30;;;;;;;1.70;1.00;;;20.60;48.60;;;;;;5055803;28;20398;-57
2021/05/26 03:38:58;;;;;;;1.55;0.95;;;20.60;48.60;;;;;;5053741;28;20091;-56
2021/05/26 03:41:25;;;;;;;2.25;1.20;;;20.60;48.60;;;;;;5061682;28;20048;-57
2021/05/26 03:43:52;;;;;;;2.92;1.30;;;20.60;48.60;;;;;;5055858;28;20507;-57
2021/05/26 03:46:19;;;;;;;2.67;1.50;;;20.60;48.50;;;;;;5038050;28;20056;-56
2021/05/26 03:48:46;;;;;;;1.65;0.93;;;20.60;48.50;;;;;;5041744;28;20037;-56
2021/05/26 03:51:13;;;;;;;2.58;1.35;;;20.60;48.50;;;;;;5054392;28;20052;-56
2021/05/26 03:53:41;;;;;;;2.50;1.23;;;20.60;48.40;;;;;;5053155;28;20057;-56
2021/05/26 03:56:08;;;;;;;2.38;1.15;;;20.60;48.40;;;;;;5051856;28;20087;-55
2021/05/26 03:58:36;;;;;;;2.17;1.15;;;20.60;48.40;;;;;;5054216;28;20037;-56
2021/05/26 04:01:06;;;;;;;2.78;1.52;;;20.60;48.40;;;;;;5051916;28;20132;-55
2021/05/26 04:03:33;;;;;;;3.15;1.20;;;20.60;48.40;;;;;;5036452;28;20044;-57
2021/05/26 04:06:04;;;;;;;3.03;1.20;;;20.60;48.40;;;;;;5036542;28;20110;-57
2021/05/26 04:08:32;;;;;;;3.35;1.50;;;20.60;48.40;;;;;;5047288;28;20044;-56
2021/05/26 04:10:59;;;;;;;2.65;1.45;;;20.70;48.40;;;;;;5035301;28;20045;-55
2021/05/26 04:13:26;;;;;;;2.40;1.15;;;20.70;48.40;;;;;;5035043;28;20386;-54
2021/05/26 04:15:53;;;;;;;2.45;1.40;;;20.60;48.20;;;;;;5035467;28;20049;-55
2021/05/26 04:18:20;;;;;;;3.72;1.38;;;20.70;48.30;;;;;;5053045;28;20072;-54
2021/05/26 04:20:48;;;;;;;2.55;1.30;;;20.60;48.20;;;;;;5052782;28;20056;-55
2021/05/26 04:23:15;;;;;;;1.92;1.20;;;20.60;48.20;;;;;;5053597;28;20045;-53
2021/05/26 04:25:48;;;;;;;2.08;1.20;;;20.60;48.20;;;;;;5053642;28;20512;-53
2021/05/26 04:28:16;;;;;;;1.67;1.00;;;20.70;48.30;;;;;;5053610;28;20420;-56
2021/05/26 04:30:44;;;;;;;3.30;1.13;;;20.70;48.10;;;;;;5053441;28;20535;-55
2021/05/26 04:33:11;;;;;;;2.53;1.35;;;20.80;48.00;;;;;;5052401;28;20060;-54
2021/05/26 04:35:42;;;;;;;2.17;1.10;;;20.80;47.80;;;;;;5052651;28;20469;-56
2021/05/26 04:38:14;;;;;;;3.13;1.45;;;20.80;47.60;;;;;;5051610;28;20104;-56
2021/05/26 04:40:41;;;;;;;3.00;1.40;;;20.90;47.50;;;;;;5052443;28;20053;-54
2021/05/26 04:43:08;;;;;;;4.25;1.40;;;21.00;47.40;;;;;;5051321;28;20049;-55
2021/05/26 04:45:35;;;;;;;2.30;1.17;;;21.00;47.30;;;;;;5060632;28;20496;-55
2021/05/26 04:48:03;;;;;;;3.22;1.23;;;21.00;47.20;;;;;;5061147;28;20452;-55
2021/05/26 04:50:30;;;;;;;2.47;1.40;;;21.10;47.30;;;;;;5052150;28;20041;-56
2021/05/26 04:52:58;;;;;;;3.67;1.20;;;21.10;47.20;;;;;;5052093;28;20052;-57
2021/05/26 04:55:25;;;;;;;1.55;1.00;;;21.10;47.10;;;;;;5053105;28;20045;-57
2021/05/26 04:58:03;;;;;;;4.00;1.33;;;21.20;47.10;;;;;;5053601;28;20053;-57
2021/05/26 05:00:30;;;;;;;2.30;1.25;;;21.20;47.00;;;;;;5048563;28;20498;-57
2021/05/26 05:02:58;;;;;;;2.42;1.38;;;21.20;46.90;;;;;;5040183;28;20048;-57
2021/05/26 05:05:34;;;;;;;2.92;1.40;;;21.30;46.90;;;;;;5051409;28;20099;-57
2021/05/26 05:08:06;;;;;;;3.38;1.35;;;21.30;46.90;;;;;;5038444;28;20053;-57
2021/05/26 05:10:34;;;;;;;2.15;1.33;;;21.30;46.80;;;;;;5038196;28;20094;-55
2021/05/26 05:13:01;;;;;;;3.38;1.20;;;21.30;46.70;;;;;;5064890;28;20060;-55
2021/05/26 05:15:29;;;;;;;3.47;1.58;;;21.40;46.70;;;;;;5037379;28;20544;-57
2021/05/26 05:17:56;;;;;;;2.00;1.30;;;21.40;46.70;;;;;;5053066;28;20098;-58
2021/05/26 05:20:24;;;;;;;2.72;1.48;;;21.40;46.70;;;;;;5035744;28;20055;-57
2021/05/26 05:22:53;;;;;;;2.67;1.00;;;21.40;46.60;;;;;;5034875;28;20080;-56
2021/05/26 05:25:21;;;;;;;2.05;1.23;;;21.40;46.60;;;;;;5035779;28;20057;-57
2021/05/26 05:27:50;;;;;;;2.22;1.30;;;21.40;46.50;;;;;;5036626;28;20448;-54
2021/05/26 05:30:19;;;;;;;3.13;1.05;;;21.40;46.50;;;;;;5057114;28;20052;-53
2021/05/26 05:32:46;;;;;;;1.73;1.08;;;21.50;46.60;;;;;;5054601;28;20067;-57
2021/05/26 05:35:14;;;;;;;2.50;1.10;;;21.50;46.60;;;;;;5057132;28;20049;-54
2021/05/26 05:37:41;;;;;;;2.60;1.30;;;21.50;46.50;;;;;;5055484;28;20103;-55
2021/05/26 05:40:09;;;;;;;2.00;1.20;;;21.50;46.50;;;;;;5055929;28;20424;-57
2021/05/26 05:42:36;;;;;;;3.15;1.40;;;21.50;46.60;;;;;;5055452;28;20068;-56
2021/05/26 05:45:05;;;;;;;1.60;1.00;;;21.50;46.60;;;;;;5056598;28;20053;-54
2021/05/26 05:47:34;;;;;;;1.95;1.20;;;21.50;46.60;;;;;;5055454;28;20048;-58
2021/05/26 05:50:04;;;;;;;2.50;1.27;;;21.50;46.60;;;;;;5056487;28;20048;-57
2021/05/26 05:52:31;;;;;;;2.50;1.50;;;21.50;46.60;;;;;;5056184;28;20504;-56
2021/05/26 05:54:59;;;;;;;3.58;1.30;;;21.50;46.50;;;;;;5057853;28;20048;-57
2021/05/26 05:57:27;;;;;;;1.95;1.17;;;21.50;46.50;;;;;;5048237;28;20064;-58
2021/05/26 05:59:54;;;;;;;2.13;1.30;;;21.50;46.50;;;;;;5047263;28;20100;-57
2021/05/26 06:02:21;;;;;;;2.03;1.30;;;21.50;46.40;;;;;;5055556;28;20041;-56
2021/05/26 06:04:48;;;;;;;2.20;1.23;;;21.60;46.50;;;;;;5049514;28;20037;-58
2021/05/26 06:07:15;;;;;;;3.95;1.48;;;21.60;46.60;;;;;;5040943;28;20057;-58
2021/05/26 06:09:43;;;;;;;2.33;1.20;;;21.60;46.50;;;;;;5052958;28;20044;-57
2021/05/26 06:12:10;;;;;;;4.70;1.30;;;21.60;46.60;;;;;;5041366;28;20127;-56
2021/05/26 06:14:37;;;;;;;2.13;1.35;;;21.50;46.50;;;;;;5054528;28;20625;-54
2021/05/26 06:17:04;;;;;;;2.47;1.27;;;21.50;46.60;;;;;;5038607;28;20386;-55
2021/05/26 06:19:31;;;;;;;1.52;1.13;;;21.50;46.60;;;;;;5039576;28;20053;-56
2021/05/26 06:21:59;;;;;;;2.05;1.20;;;21.50;46.60;;;;;;5038927;28;20057;-57
2021/05/26 06:24:26;;;;;;;2.45;1.20;;;21.50;46.70;;;;;;5055156;28;20087;-56
2021/05/26 06:26:53;;;;;;;2.70;1.30;;;21.50;46.70;;;;;;5037203;28;20061;-57
2021/05/26 06:29:20;;;;;;;2.25;1.38;;;21.50;46.70;;;;;;5054994;28;20044;-58
2021/05/26 06:31:47;;;;;;;2.03;1.20;;;21.50;46.80;;;;;;5053369;28;20053;-56
2021/05/26 06:34:15;;;;;;;1.20;1.00;;;21.50;46.80;;;;;;5055889;28;20049;-57
2021/05/26 06:36:42;;;;;;;1.73;1.00;;;21.50;46.80;;;;;;5069798;28;20408;-56
2021/05/26 06:39:09;;;;;;;2.60;1.23;;;21.50;46.90;;;;;;5044313;28;20464;-57
2021/05/26 06:41:36;;;;;;;1.90;1.30;;;21.50;46.90;;;;;;5049850;28;20053;-56
2021/05/26 06:44:04;;;;;;;2.60;1.45;;;21.50;46.90;;;;;;5054441;28;20060;-57
2021/05/26 06:46:31;;;;;;;2.20;1.30;;;21.50;46.90;;;;;;5053278;28;20045;-57
2021/05/26 06:48:58;;;;;;;1.90;1.20;;;21.50;46.90;;;;;;5044219;28;20038;-56
2021/05/26 06:51:26;;;;;;;2.20;1.30;;;21.50;47.00;;;;;;5037685;28;20049;-58
2021/05/26 06:53:55;;;;;;;1.60;1.10;;;21.50;47.00;;;;;;5047786;28;20045;-57
2021/05/26 06:56:22;;;;;;;2.40;0.82;;;21.50;47.00;;;;;;5053358;28;20056;-58
2021/05/26 06:58:50;;;;;;;2.03;1.10;;;21.50;47.10;;;;;;5054321;28;20041;-58
2021/05/26 07:01:24;;;;;;;1.90;1.13;;;21.50;47.10;;;;;;5049183;28;20073;-57
2021/05/26 07:03:51;;;;;;;3.22;1.10;;;21.50;47.10;;;;;;5037996;28;20038;-57
2021/05/26 07:06:19;;;;;;;2.10;1.08;;;21.50;47.10;;;;;;5037351;28;20069;-57
2021/05/26 07:08:46;;;;;;;2.08;1.00;;;21.50;47.10;;;;;;5045257;28;20060;-57
2021/05/26 07:11:13;;;;;;;1.98;1.17;;;21.50;47.10;;;;;;5040625;28;20045;-57
2021/05/26 07:13:40;;;;;;;1.92;1.35;;;21.50;47.10;;;;;;5052971;28;20166;-58
2021/05/26 07:16:07;;;;;;;2.97;1.10;;;21.50;47.20;;;;;;5037850;28;20049;-57
2021/05/26 07:18:35;;;;;;;1.40;0.90;;;21.50;47.20;;;;;;5039696;28;20045;-58
2021/05/26 07:21:02;;;;;;;2.05;1.00;;;21.50;47.20;;;;;;5037756;28;20191;-57
2021/05/26 07:23:32;;;;;;;1.75;0.88;;;21.50;47.20;;;;;;5053128;28;20041;-56
2021/05/26 07:25:59;;;;;;;1.83;1.10;;;21.50;47.20;;;;;;5052837;28;20071;-57
2021/05/26 07:28:26;;;;;;;2.45;1.08;;;21.50;47.30;;;;;;5067938;28;20045;-58
2021/05/26 07:30:53;;;;;;;1.83;1.08;;;21.50;47.30;;;;;;5052500;28;20052;-58
2021/05/26 07:33:21;;;;;;;2.08;1.00;;;21.50;47.30;;;;;;5052348;28;20045;-57
2021/05/26 07:35:48;;;;;;;1.02;0.93;;;21.50;47.30;;;;;;5053308;28;20053;-57
2021/05/26 07:38:35;;;;;;;2.13;1.08;;;21.50;47.40;;;;;;5035854;28;20142;-57
2021/05/26 07:41:03;;;;;;;1.40;1.00;;;21.50;47.40;;;;;;5053231;28;20049;-55
2021/05/26 07:43:33;;;;;;;2.03;0.90;;;21.50;47.40;;;;;;5038157;28;20045;-56
2021/05/26 07:46:01;;;;;;;2.70;1.08;;;21.50;47.40;;;;;;5051727;28;20118;-57
2021/05/26 07:48:29;;;;;;;2.05;1.08;;;21.50;47.50;;;;;;5053391;28;20045;-57
2021/05/26 07:50:56;;;;;;;2.25;1.00;;;21.50;47.40;;;;;;5041592;28;20080;-56
2021/05/26 07:53:23;;;;;;;2.47;1.00;;;21.50;47.50;;;;;;5036589;28;20050;-56
2021/05/26 07:55:51;;;;;;;1.75;0.80;;;21.50;48.10;;;;;;5048047;28;20049;-58
2021/05/26 07:58:18;;;;;;;3.40;1.10;;;21.50;47.50;;;;;;5042707;28;20419;-57
2021/05/26 08:00:49;;;;;;;1.25;0.82;;;21.50;47.50;;;;;;5036483;28;20050;-57
2021/05/26 08:03:18;;;;;;;3.60;1.33;;;21.60;47.60;;;;;;5045736;28;20056;-57
2021/05/26 08:05:45;;;;;;;2.13;1.00;;;21.60;47.60;;;;;;5047935;28;20441;-57
2021/05/26 08:08:14;;;;;;;2.38;1.02;;;21.60;47.70;;;;;;5046926;28;20041;-57
2021/05/26 08:10:42;;;;;;;2.67;1.00;;;21.60;47.70;;;;;;5037812;28;20111;-57
2021/05/26 08:13:09;;;;;;;1.83;0.90;;;21.60;47.70;;;;;;5042276;28;20049;-57
2021/05/26 08:15:37;;;;;;;2.28;1.00;;;21.60;47.70;;;;;;5052645;28;20052;-59
2021/05/26 08:18:10;;;;;;;2.17;0.90;;;21.60;47.70;;;;;;5053047;28;20049;-56
2021/05/26 08:20:39;;;;;;;1.65;0.80;;;21.60;47.70;;;;;;5052799;28;20146;-56
2021/05/26 08:23:06;;;;;;;1.52;0.82;;;21.60;47.70;;;;;;5053864;28;20048;-57
2021/05/26 08:25:34;;;;;;;3.35;1.23;;;21.60;47.70;;;;;;5051650;28;20401;-56
2021/05/26 08:28:01;;;;;;;1.27;0.90;;;21.60;47.70;;;;;;5052600;28;20114;-57
2021/05/26 08:30:29;;;;;;;2.10;0.90;;;21.60;47.70;;;;;;5052366;28;20041;-56
2021/05/26 08:32:56;;;;;;;1.85;0.80;;;21.60;47.70;;;;;;5053918;28;20122;-57
2021/05/26 08:35:23;;;;;;;4.25;0.90;;;21.60;47.70;;;;;;5035476;28;20057;-58
2021/05/26 08:37:51;;;;;;;2.40;0.90;;;21.60;47.70;;;;;;5034950;28;20056;-58
2021/05/26 08:40:21;;;;;;;2.10;1.08;;;21.60;47.70;;;;;;5051596;28;20412;-58
2021/05/26 08:42:49;;;;;;;1.65;0.80;;;21.60;47.70;;;;;;5034971;28;20057;-56
2021/05/26 08:45:17;;;;;;;1.27;0.80;;;21.60;47.70;;;;;;5051497;28;20045;-58
2021/05/26 08:47:45;;;;;;;2.15;1.08;;;21.60;47.70;;;;;;5053485;28;20055;-56
2021/05/26 08:50:14;;;;;;;1.77;0.95;;;21.60;47.80;;;;;;5037170;28;20052;-56
2021/05/26 08:52:44;;;;;;;1.55;0.80;;;21.60;47.80;;;;;;5036769;28;20115;-56
2021/05/26 08:55:14;;;;;;;2.38;0.90;;;21.60;47.80;;;;;;5036011;28;20060;-57
2021/05/26 08:57:41;;;;;;;1.25;0.80;;;21.60;47.80;;;;;;5037074;28;20045;-58
2021/05/26 09:00:10;;;;;;;1.48;0.80;;;21.60;47.80;;;;;;5047376;28;20055;-57
2021/05/26 09:02:38;;;;;;;1.73;1.05;;;21.60;47.80;;;;;;5041684;28;20136;-58
2021/05/26 09:05:22;;;;;;;1.92;1.00;;;21.70;47.80;;;;;;5037919;28;20048;-58
2021/05/26 09:07:49;;;;;;;1.52;0.80;;;21.70;47.90;;;;;;5046144;28;20041;-58
2021/05/26 09:10:16;;;;;;;1.35;0.63;;;21.70;47.80;;;;;;5034150;28;20075;-58
2021/05/26 09:12:45;;;;;;;1.48;0.90;;;21.70;47.80;;;;;;5051838;28;20051;-58
2021/05/26 09:15:16;;;;;;;1.95;1.10;;;21.70;47.80;;;;;;5061537;28;20094;-57
2021/05/26 09:17:48;;;;;;;2.85;0.80;;;21.70;47.80;;;;;;5060628;28;20052;-57
2021/05/26 09:20:22;;;;;;;1.80;0.90;;;21.70;47.80;;;;;;5051815;28;20052;-58
2021/05/26 09:23:10;;;;;;;1.77;0.90;;;21.70;48.40;;;;;;5051643;28;20056;-55
2021/05/26 09:25:45;;;;;;;1.92;0.98;;;21.70;47.80;;;;;;5051681;28;20084;-56
2021/05/26 09:28:16;;;;;;;2.15;0.80;;;21.70;47.80;;;;;;5050599;28;20045;-56
2021/05/26 09:30:48;;;;;;;2.05;0.88;;;21.70;47.80;;;;;;5051946;28;20455;-58
2021/05/26 09:33:52;;;;;;;1.65;1.00;;;21.70;47.80;;;;;;5041653;28;20552;-58
2021/05/26 09:36:24;;;;;;;1.55;0.90;;;21.70;47.80;;;;;;5035615;28;20050;-56
2021/05/26 09:38:56;;;;;;;1.40;0.80;;;21.70;47.80;;;;;;5049008;28;20053;-55
2021/05/26 09:41:24;;;;;;;1.58;0.82;;;21.70;47.80;;;;;;5050521;28;20056;-57
2021/05/26 09:44:00;;;;;;;2.05;0.80;;;21.70;47.80;;;;;;5039635;28;20041;-55
2021/05/26 09:46:36;;;;;;;1.70;0.80;;;21.70;47.80;;;;;;5048165;28;20057;-54
2021/05/26 09:49:06;;;;;;;2.08;0.90;;;21.70;47.80;;;;;;5038527;28;20119;-54
2021/05/26 09:52:00;;;;;;;1.55;0.82;;;21.80;47.80;;;;;;5035304;28;20096;-57
2021/05/26 09:54:28;;;;;;;1.00;0.70;;;21.80;47.80;;;;;;5033581;28;20121;-56
2021/05/26 09:57:02;;;;;;;2.17;1.00;;;21.80;47.70;;;;;;5051875;28;20072;-56
2021/05/26 09:59:29;;;;;;;1.83;1.10;;;21.80;47.70;;;;;;5051108;28;20053;-58
2021/05/26 10:01:58;;;;;;;1.63;0.80;;;21.80;47.70;;;;;;5036113;28;20057;-57
2021/05/26 10:04:26;;;;;;;1.15;0.85;;;21.80;47.60;;;;;;5049031;28;20041;-53
2021/05/26 10:07:04;;;;;;;1.85;0.80;;;21.80;47.50;;;;;;5050997;28;20056;-58
2021/05/26 10:09:33;;;;;;;3.08;0.95;;;21.80;47.50;;;;;;5051473;28;20053;-56
2021/05/26 10:12:03;;;;;;;2.78;0.90;;;21.80;47.40;;;;;;5051835;28;20045;-57
2021/05/26 10:14:35;;;;;;;3.15;0.82;;;21.80;47.40;;;;;;5053785;28;20055;-58
2021/05/26 10:17:10;;;;;;;1.02;0.70;;;21.80;47.40;;;;;;5042161;28;20123;-54
2021/05/26 10:19:37;;;;;;;2.25;0.95;;;21.80;47.40;;;;;;5049894;28;20055;-57
2021/05/26 10:22:04;;;;;;;3.58;1.00;;;21.80;47.40;;;;;;5045426;28;20501;-57
2021/05/26 10:24:33;;;;;;;2.30;1.00;;;21.80;47.30;;;;;;5038604;28;20132;-56
2021/05/26 10:27:00;;;;;;;3.53;1.13;;;21.80;47.30;;;;;;5048522;28;20067;-56
2021/05/26 10:29:28;;;;;;;4.63;0.90;;;21.80;47.30;;;;;;5054450;28;20512;-57
2021/05/26 10:32:08;;;;;;;2.20;0.90;;;21.80;47.30;;;;;;5047897;28;20052;-58
2021/05/26 10:34:46;;;;;;;5.82;0.80;;;21.90;47.30;;;;;;5038642;28;20057;-57
2021/05/26 10:37:28;;;;;;;4.68;0.98;;;21.80;47.80;;;;;;5048038;28;20044;-57
2021/05/26 10:39:55;;;;;;;2.65;0.70;;;21.80;47.10;;;;;;5055805;28;20049;-57
2021/05/26 10:42:31;;;;;;;4.00;1.00;;;21.80;47.20;;;;;;5054399;28;20496;-56
2021/05/26 10:45:02;;;;;;;2.30;1.02;;;21.80;47.10;;;;;;5054448;28;20131;-56
2021/05/26 10:47:36;;;;;;;3.38;0.85;;;21.90;47.20;;;;;;5047394;28;20468;-55
2021/05/26 10:50:20;;;;;;;6.00;0.80;;;21.90;47.20;;;;;;5039419;28;20092;-57
2021/05/26 10:52:56;;;;;;;6.47;0.80;;;21.90;47.20;;;;;;5038929;28;20225;-57
2021/05/26 10:55:40;;;;;;;3.45;1.10;;;21.80;47.10;;;;;;5039193;28;20055;-55
2021/05/26 10:58:11;;;;;;;3.00;0.87;;;21.80;47.20;;;;;;5047915;28;20450;-57
2021/05/26 11:00:41;;;;;;;5.03;0.73;;;21.90;47.20;;;;;;5052861;28;21043;-57
2021/05/26 11:03:27;;;;;;;3.92;1.02;;;21.90;47.20;;;;;;5054075;28;20098;-54
2021/05/26 11:05:55;;;;;;;1.75;0.70;;;21.90;47.20;;;;;;5050926;28;20121;-57
2021/05/26 11:08:34;;;;;;;2.15;0.60;;;21.90;47.10;;;;;;5048483;28;20045;-55
2021/05/26 11:11:33;;;;;;;2.05;0.70;;;21.90;47.10;;;;;;5052846;28;20103;-58
2021/05/26 11:14:06;;;;;;;1.85;0.90;;;21.90;47.10;;;;;;5054175;28;20128;-56
2021/05/26 11:16:49;;;;;;;3.22;0.85;;;21.90;47.20;;;;;;5054232;28;20408;-57
2021/05/26 11:19:21;;;;;;;3.30;1.00;;;21.90;47.10;;;;;;5053139;28;20072;-58
2021/05/26 11:22:03;;;;;;;4.05;0.70;;;21.90;47.20;;;;;;5053549;28;20053;-54
2021/05/26 11:24:44;;;;;;;7.00;0.70;;;21.90;47.10;;;;;;5036374;28;20088;-57
2021/05/26 11:27:29;;;;;;;4.38;0.82;;;21.90;47.10;;;;;;5036943;28;20059;-55
2021/05/26 11:30:00;;;;;;;2.42;0.60;;;21.90;47.10;;;;;;5053547;28;20045;-56
2021/05/26 11:32:28;;;;;;;2.45;0.65;;;21.90;47.10;;;;;;5054008;28;20045;-55
2021/05/26 11:35:00;;;;;;;4.95;0.60;;;21.90;47.60;;;;;;5053574;28;20045;-55
2021/05/26 11:37:40;;;;;;;1.35;0.60;;;21.90;47.00;;;;;;5052836;28;20056;-57
2021/05/26 11:40:28;;;;;;;1.27;0.70;;;21.90;47.00;;;;;;5053124;28;20059;-56
2021/05/26 11:42:58;;;;;;;4.38;0.73;;;21.90;47.00;;;;;;5038405;28;20455;-55
2021/05/26 11:45:26;;;;;;;1.95;1.15;;;21.90;46.90;;;;;;5037189;28;20049;-57
2021/05/26 11:47:56;;;;;;;2.42;0.50;;;21.90;46.90;;;;;;5036603;28;20041;-56
2021/05/26 11:50:26;;;;;;;1.00;0.70;;;21.90;46.90;;;;;;5052987;28;20045;-57
2021/05/26 11:53:16;;;;;;;2.67;0.70;;;21.90;46.90;;;;;;5052280;28;20053;-57
2021/05/26 11:55:45;;;;;;;2.20;0.70;;;21.90;46.90;;;;;;5037952;28;20044;-55
2021/05/26 11:58:13;;;;;;;2.13;0.80;;;21.90;46.90;;;;;;5036540;28;20049;-56
2021/05/26 12:00:40;;;;;;;1.70;1.00;;;21.90;46.90;;;;;;5052456;28;20439;-57
2021/05/26 12:03:13;;;;;;;3.47;0.75;;;21.90;46.90;;;;;;5053127;28;20048;-55
2021/05/26 12:05:46;;;;;;;1.95;0.68;;;21.90;46.90;;;;;;5050478;28;20049;-53
2021/05/26 12:08:15;;;;;;;6.97;0.85;;;21.90;46.80;;;;;;5052585;28;20060;-55
2021/05/26 12:10:47;;;;;;;1.00;0.60;;;21.90;46.80;;;;;;5053366;28;20041;-56
2021/05/26 12:13:22;;;;;;;2.20;0.68;;;21.90;46.90;;;;;;5053261;28;20048;-55
2021/05/26 12:15:50;;;;;;;3.15;0.70;;;21.90;46.80;;;;;;5051126;28;20131;-56
2021/05/26 12:18:18;;;;;;;1.10;0.70;;;21.90;46.80;;;;;;5052918;28;20049;-57
2021/05/26 12:20:49;;;;;;;2.67;0.60;;;21.90;46.80;;;;;;5051414;28;20425;-54
2021/05/26 12:23:36;;;;;;;2.85;0.73;;;21.90;46.80;;;;;;5037401;28;20084;-56
2021/05/26 12:26:33;;;;;;;1.95;0.63;;;21.90;46.80;;;;;;5035302;28;20055;-57
2021/05/26 12:29:12;;;;;;;1.20;0.65;;;21.90;46.70;;;;;;5035361;28;20100;-58
2021/05/26 12:31:40;;;;;;;2.97;1.02;;;21.90;46.70;;;;;;5036221;28;20048;-54
2021/05/26 12:34:27;;;;;;;5.00;0.80;;;21.90;46.70;;;;;;5034828;28;20053;-57
2021/05/26 12:36:56;;;;;;;1.27;0.60;;;21.90;46.80;;;;;;5036936;28;20114;-56
2021/05/26 12:39:24;;;;;;;1.85;0.70;;;21.90;46.80;;;;;;5037026;28;20045;-55
2021/05/26 12:41:53;;;;;;;0.90;0.60;;;21.90;46.80;;;;;;5034358;28;20057;-57
2021/05/26 12:44:25;;;;;;;1.20;0.77;;;21.90;46.70;;;;;;5053459;28;20100;-56
2021/05/26 12:46:55;;;;;;;1.50;0.60;;;21.90;46.70;;;;;;5052836;28;20405;-56
2021/05/26 12:49:29;;;;;;;1.35;0.50;;;22.00;46.80;;;;;;5052400;28;20091;-55
2021/05/26 12:52:06;;;;;;;1.00;0.70;;;22.00;46.70;;;;;;5051853;28;20123;-55
2021/05/26 12:54:44;;;;;;;1.65;0.70;;;22.00;46.70;;;;;;5051859;28;20131;-55
2021/05/26 12:57:14;;;;;;;3.53;0.60;;;22.00;46.60;;;;;;5052792;28;20048;-57
2021/05/26 12:59:54;;;;;;;0.90;0.52;;;22.00;46.60;;;;;;5034939;28;20559;-56
2021/05/26 13:02:32;;;;;;;1.55;0.60;;;22.00;46.60;;;;;;5051929;28;20102;-58